Forest River, ND

8:01 AM CST on December 29, 2014 (GMT -0600)
Grand Forks Air Force Base | Change Station
CLOSE
Current Station
Airport
Location: Grand Forks AFB,
Elevation: 912 ft
Nearby Weather Stations
Active Advisory: Wind Chill Advisory

Elev 912 ft 47.96 °N, 97.40 °W | Updated 3 minutes ago

Clear
Clear
-15 °F
Feels Like -29 °F
N
6
Wind Variable Wind from NNW

Today
High -- | Low -- °F
--% Chance of Precip.
Yesterday
High -- | Low -- °F
Precip. -- in
8:20 AM 4:43 PM
First Quarter, 59% visible
Pressure 30.80 in
Visibility 10.0 miles
Clouds Clear
Windchill -29 °F
Dew Point -20 °F
Humidity 77%
Rainfall 0.00 in
Snow Depth Not available.
UV 0 out of 12
Pollen .10 out of 12
Air Quality Not available.
Flu Activity Not available.
METAR KRDR 291358Z AUTO 33005KT 10SM CLR M26/M29 A3068 RMK AO2 SLP429 T12611291

More Conditions Fewer Conditions

Pressure 30.80 in
Visibility 10.0 miles
Clouds Clear
Windchill -29 °F
Dew Point -20 °F
Humidity 77%
Rainfall 0.00 in
Snow Depth Not available.
UV 0 out of 12
Pollen .10 out of 12
Air Quality Not available.
Flu Activity Not available.
METAR KRDR 291358Z AUTO 33005KT 10SM CLR M26/M29 A3068 RMK AO2 SLP429 T12611291

More Conditions Fewer Conditions

10-Day Weather Forecast

Almanac

Astronomy

Dec. 29, 2014 Rise Set
Actual Time
Civil Twilight
Nautical Twilight
Astronomical Twilight
Moon
Length of Visible Light
Length of Day
Tomorrow will be .
, % of the Moon is Illuminated

Today's Extremes

State Highs State Lows

Community

WunderPhotos

Upload Photos

1,781,587 photos uploaded!

WunderBlogs® & News

Nearby

Air Quality

  Air Quality AQ Index Pollutant
Not available.

Snow Depth

Station Depth Elevation

Earthquake Activity

City Distance Mag. Time & Date
Minimum magnitude displayed is 2.5.

Coastal Water Temperatures

Place Temperature

Nearby Weather Stations